Angel Fire, NM (87710)

3:00 PM MDT on March 29, 2015 (GMT -0600)
NW face of Angel Fire Ski Mountain | | Change Station
CLOSE
Current Station
Personal Weather Station
Location: Angel Fire, NM
Elevation: 8907 ft
Nearby Weather Stations

Elev 8907 ft 36.39 °N, 105.26 °W | Updated 11 minutes ago

Mostly Cloudy
Mostly Cloudy
58.0 °F
Feels Like 58.0 °F
N
1.0
Wind Variable Wind from East
Gusts 5.0 mph

Today
High -- | Low -- °F
--% Chance of Precip.
Yesterday
High -- | Low -- °F
Precip. -- in
6:51 AM 7:20 PM
Waxing Gibbous, 74% visible
Pressure 30.32 in
Visibility 10.0 miles
Clouds Scattered Clouds 11000 ft
Dew Point 26 °F
Humidity 29%
Rainfall 0.00 in
Snow Depth Not available.
UV 3.9 out of 12
Pollen 11.60 out of 12
Air Quality Not available.
Flu Activity Not available.
METAR KAXX 292055Z AUTO 18015G22KT 10SM SCT110 16/M05 A3032 RMK AO2 T01561050

More Conditions Fewer Conditions

Pressure 30.32 in
Visibility 10.0 miles
Clouds Scattered Clouds 11000 ft
Dew Point 26 °F
Humidity 29%
Rainfall 0.00 in
Snow Depth Not available.
UV 3.9 out of 12
Pollen 11.60 out of 12
Air Quality Not available.
Flu Activity Not available.
METAR KAXX 292055Z AUTO 18015G22KT 10SM SCT110 16/M05 A3032 RMK AO2 T01561050

More Conditions Fewer Conditions

Nowcast | as of 1:31 PM MDT on March 29, 2015

Through mid afternoon gusty virga showers and a few sprinkles will continue along the east slopes of the Sangre de Cristo Mountains. These showers may drift slowly to the east southeast...or remain nearly stationary. Wind gusts to 45 mph will be possible near stronger showers...and there could be a few lightning strikes.

×

10-Day Weather Forecast

Almanac

Astronomy

Mar. 29, 2015 Rise Set
Actual Time
Civil Twilight
Nautical Twilight
Astronomical Twilight
Moon
Length of Visible Light
Length of Day
Tomorrow will be .
, % of the Moon is Illuminated

Today's Extremes

State Highs State Lows

Community

WunderPhotos

Upload Photos

1,809,349 photos uploaded!

WunderBlogs® & News

Nearby

Air Quality

  Air Quality AQ Index Pollutant
Not available.

Snow Depth

Station Depth Elevation

Earthquake Activity

City Distance Mag. Time & Date
Minimum magnitude displayed is 2.5.

Coastal Water Temperatures

Place Temperature

Stations

Nearby Weather Stations

Station Location Temp. Windchill Dew Point Humidity Wind Precip. Elev Updated Type